Wednesday, February 20, 2019, 2:50 PM EST
Back to Local

KEWN, New Bern, Craven County Regional Airport

Location: New Bern, NC, United States Lat: 35.068
Local Time: 2:50 PM EST (19:50 GMT) Lon: -77.047
Time Zone: US/Eastern Elev: 16 ft

Show me the last for .
Show Decoded

2019-02-20 13:54 METAR KEWN 201854Z 07004KT 10SM OVC004 12/12 A3022 RMK AO2 SLP233 T01220122 =
2019-02-20 12:54 METAR KEWN 201754Z 10005KT 4SM BR OVC004 11/11 A3026 RMK AO2 RAE20 SLP248 P0000
                 60014 T01110106 10111 20044 58033 =
2019-02-20 12:20 METAR KEWN 201720Z 09009KT 3SM BR OVC004 10/10 A3030 RMK AO2 RAE20 P0000
                 T01000100 =
2019-02-20 12:00 METAR KEWN 201700Z 06007KT 2SM -RA BR OVC004 09/09 A3032 RMK AO2 P0000 T00940094
                 =
2019-02-20 11:54 METAR KEWN 201654Z 07006KT 1 3/4SM -RA BR OVC005 09/09 A3033 RMK AO2 PRESFR
                 SLP269 P0004 T00890089 =
2019-02-20 11:25 METAR KEWN 201625Z 06006KT 1 1/2SM -RA BR OVC005 08/08 A3036 RMK AO2 P0003
                 T00830078 =
2019-02-20 10:50 METAR KEWN 201550Z 05005KT 1 1/2SM -RA BR OVC004 08/07 A3036 RMK AO2 SLP280
                 P0005 T00780072 =
2019-02-20 10:49 METAR KEWN 201549Z 05006KT 1 1/2SM RA BR OVC004 08/07 A3036 RMK AO2 P0005 =
2019-02-20 10:40 METAR KEWN 201540Z 05006KT 2SM RA BR OVC005 08/07 A3036 RMK AO2 P0004 T00780072
                 =
2019-02-20 10:08 METAR KEWN 201508Z 06008KT 1 1/4SM -RA BR OVC005 07/07 A3036 RMK AO2 P0001
                 T00720067 =
2019-02-20 10:01 METAR KEWN 201501Z 07008KT 2SM -RA BR OVC005 07/07 A3036 RMK AO2 P0001 T00720067
                 =
2019-02-20 09:54 METAR KEWN 201454Z 08006KT 1 3/4SM -RA BR OVC005 07/07 A3036 RMK AO2 SLP280
                 P0001 60005 T00670067 55012 =
2019-02-20 09:49 METAR KEWN 201449Z 07006KT 1 3/4SM -RA BR OVC005 07/06 A3036 RMK AO2 P0001 =
2019-02-20 09:26 METAR KEWN 201426Z 06007KT 2SM -RA BR OVC005 06/06 A3038 RMK AO2 P0000 T00610056
                 =
2019-02-20 09:05 METAR KEWN 201405Z 05007KT 3SM -RA BR OVC006 06/05 A3039 RMK AO2 P0000 T00560050
                 =
2019-02-20 08:54 METAR KEWN 201354Z 07007KT 2SM -RA BR OVC006 06/05 A3039 RMK AO2 SLP289 P0003
                 T00560050 =
2019-02-20 08:30 METAR KEWN 201330Z 08008KT 1 1/2SM -RA BR OVC006 05/05 A3039 RMK AO2 P0002
                 T00500050 =
2019-02-20 08:14 METAR KEWN 201314Z 07008KT 2SM -RA BR OVC006 05/04 A3041 RMK AO2 P0001 T00500044
                 =
2019-02-20 07:54 METAR KEWN 201254Z 07008KT 1 3/4SM -RA BR OVC006 05/04 A3040 RMK AO2 SLP292
                 P0001 T00500044 =
2019-02-20 07:52 METAR KEWN 201252Z 07007KT 1 3/4SM -RA BR OVC006 05/04 A3040 RMK AO2 P0001 =
2019-02-20 06:54 METAR KEWN 201154Z 06008KT 8SM -RA OVC007 04/03 A3041 RMK AO2 RAB49 SLP295 P0000
                 60002 70003 T00440033 10044 20022 55022 =
2019-02-20 05:54 METAR KEWN 201054Z 08009KT 10SM OVC008 04/03 A3039 RMK AO2 RAE09 CIG 006V010
                 PRESFR SLP291 P0000 T00390028 =
2019-02-20 05:08 METAR KEWN 201008Z AUTO 07008KT 8SM -RA BKN007 BKN050 OVC070 03/02 A3043 RMK AO2
                 P0000 T00330022 =
2019-02-20 04:54 METAR KEWN 200954Z AUTO 07010KT 4SM -RA BR SCT009 SCT045 OVC055 03/02 A3044 RMK
                 AO2 SLP307 P0001 T00330022 =
2019-02-20 04:11 METAR KEWN 200911Z AUTO 05010KT 7SM -RA FEW009 SCT050 OVC065 03/02 A3046 RMK AO2
                 P0000 T00280017 =
2019-02-20 03:54 METAR KEWN 200854Z AUTO 05011KT 6SM -RA BR FEW030 BKN060 OVC075 03/02 A3047 RMK
                 AO2 SLP317 P0000 60001 T00330017 56030 =
2019-02-20 02:54 METAR KEWN 200754Z AUTO 05010KT 9SM -RA FEW070 OVC085 03/01 A3049 RMK AO2 RAB25
                 SLP323 P0001 T00280006 =
2019-02-20 01:54 METAR KEWN 200654Z AUTO 04010KT 10SM OVC085 03/00 A3052 RMK AO2 RAE10 SLP335
                 P0000 T00280000 =
2019-02-20 00:54 METAR KEWN 200554Z AUTO 01008KT 9SM -RA FEW060 BKN080 OVC095 02/00 A3056 RMK AO2
                 RAB41 SLP347 P0000 60001 T00220000 10044 20022 55016 =
2019-02-19 23:54 METAR KEWN 200454Z AUTO 04010KT 10SM OVC085 02/M01 A3054 RMK AO2 RAE35 SLP342
                 P0000 T00221006 401000022 =
2019-02-19 22:54 METAR KEWN 200354Z AUTO 06008KT 7SM -RA FEW055 BKN090 OVC100 03/M02 A3057 RMK
                 AO2 SLP352 P0001 T00281017 =
2019-02-19 21:54 METAR KEWN 200254Z AUTO 03012KT 10SM -RA OVC090 04/M03 A3060 RMK AO2 RAB44
                 SLP363 P0000 60000 T00391028 53003 =
2019-02-19 20:54 METAR KEWN 200154Z 04014KT 10SM OVC100 04/M02 A3058 RMK AO2 RAB04E18 SLP356
                 P0000 T00391022 =
2019-02-19 19:54 METAR KEWN 200054Z 06009KT 10SM FEW075 OVC095 04/M01 A3061 RMK AO2 RAB05E25
                 SLP365 P0000 T00441006 =
2019-02-19 18:54 METAR KEWN 192354Z 06008KT 10SM OVC095 04/M01 A3059 RMK AO2 RAB20E48 SLP359
                 P0000 60000 T00441006 10067 20044 51020 =
2019-02-19 17:54 METAR KEWN 192254Z 07007KT 10SM OVC090 05/M01 A3058 RMK AO2 RAB23E37 SLP355
                 P0000 T00501006 =
2019-02-19 16:54 METAR KEWN 192154Z 05010KT 10SM OVC110 06/M02 A3056 RMK AO2 SLP349 T00561017 =
2019-02-19 15:54 METAR KEWN 192054Z 05009KT 10SM OVC100 06/M01 A3053 RMK AO2 RAB20E32 SLP339
                 P0000 60000 T00611011 58011 =
2019-02-19 14:54 METAR KEWN 191954Z 02009KT 10SM OVC110 07/M01 A3055 RMK AO2 SLP344 T00671006 =

Support USWX by starting your Amazon purchase here.